KEFD/EFD METAR and TAF weather

Enter ICAO airport designator
Station Type Date Time Source
KEFD METAR 2020/01/21 20:50 UTC NOAA

KEFD 212050Z 11006KT 10SM SCT250 13/02 A3043


Station Type Date Time Source
KEFD Decoded METAR 2020/01/21 20:50 UTC NOAA

Houston / Ellington, TX, United States (KEFD) 29-36N 095-10W
Jan 21, 2020 - 03:50 PM EST / 2020.01.21 2050 UTC
Wind: from the ESE (110 degrees) at 7 MPH (6 KT):0
Visibility: 10 mile(s):0
Sky conditions: partly cloudy
Temperature: 55 F (13 C)
Dew Point: 35 F (2 C)
Relative Humidity: 47%
Pressure (altimeter): 30.43 in. Hg (1030 hPa)
ob: KEFD 212050Z 11006KT 10SM SCT250 13/02 A3043
cycle: 21

Station Type Date Time Source
KEFD TAF 2020/01/21 20:14 UTC NOAA

TAF KEFD 212011Z 2120/2302 11009KT 9999 SCT200 QNH3033INS
BECMG 2205/2206 10009KT 9999 BKN020 QNH3021INS
BECMG 2215/2216 12012KT 8000 -SHRA OVC010 WS010/14030KT QNH2997INS TX16/2121Z TN06/2212Z

Example: see airport list